If you wish to contribute or participate in the discussions about articles you are invited to join SKYbrary as a registered user

 Actions

Birsa Munda Airport

From SKYbrary Wiki

VERC
Airport
ICAO: VERC
Summary
Name Birsa Munda Airport
Region Asia and Pacific
Territory India IN.gif
Location Ranchi, Jharkhand
Serving
Coordinates 23° 19' 1.08" N, 85° 19' 26.47" E
Runways
Designator Length Width Surface ROPS
13/31 2699 m8,854.987 ft
45 m147.638 ft
ASP yes/yes


METAR
Observation VERC 250200Z 00000KT 3000 HZ NSC 25/22 Q1013 NOSIG
Station M. O. Ranchi
Date/Time 25 April 2019 02:00:00
Wind direction
Wind speed 00 kts
Lowest cloud amount nil significant cloud
Temperature 25°C
Dew point 22°C
Humidity 83%
QNH 1013 hPa
Weather condition n/a

WX
Tag(s) Cumulonimbus

Birsa Munda Airport

ICAO: VERC IATA: IXR

Description

Birsa Munda Airport is a public use domestic airport located 7 km3.78 nm
7,000 m
22,965.879 ft
south of the central business district of Ranchi, a city in the state of Jharkhand, India.

Climatology

Humid “subtropical” climate (Köppen climate classification Cwa) - characterized by hot, humid summers and cool winters.

Maps

Terrain

Loading map...

Airport Layout

Loading map...


Accidents & Serious Incidents at or in vicinity of VERC

None on SKYbrary